createdAt,value
2022-12-11T00:01:59.269Z,17.17
2022-12-11T00:04:26.733Z,16.97
2022-12-11T00:06:55.487Z,14.80
2022-12-11T00:09:22.890Z,14.47
2022-12-11T00:11:50.294Z,15.93
2022-12-11T00:14:17.796Z,16.40
2022-12-11T00:16:45.223Z,15.30
2022-12-11T00:19:13.719Z,14.37
2022-12-11T00:21:41.138Z,15.93
2022-12-11T00:24:10.203Z,16.07
2022-12-11T00:26:37.621Z,13.37
2022-12-11T00:29:05.054Z,15.67
2022-12-11T00:31:32.550Z,12.23
2022-12-11T00:33:59.967Z,13.20
2022-12-11T00:36:27.587Z,11.87
2022-12-11T00:38:55.497Z,14.07
2022-12-11T00:41:24.346Z,12.60
2022-12-11T00:43:51.798Z,10.57
2022-12-11T00:46:19.306Z,10.90
2022-12-11T00:48:48.558Z,11.03
2022-12-11T00:51:16.429Z,12.00
2022-12-11T00:53:44.530Z,11.27
2022-12-11T00:56:12.998Z,10.40
2022-12-11T00:58:41.757Z,12.17
2022-12-11T01:01:09.961Z,10.33
2022-12-11T01:03:37.826Z,11.97
2022-12-11T01:06:05.832Z,10.67
2022-12-11T01:08:38.321Z,10.80
2022-12-11T01:11:06.890Z,11.23
2022-12-11T01:13:34.452Z,12.63
2022-12-11T01:16:06.828Z,11.13
2022-12-11T01:18:34.258Z,13.00
2022-12-11T01:21:05.804Z,11.17
2022-12-11T01:23:33.268Z,12.53
2022-12-11T01:26:05.212Z,11.93
2022-12-11T01:28:32.622Z,12.00
2022-12-11T01:31:00.111Z,13.83
2022-12-11T01:33:29.283Z,12.27
2022-12-11T01:35:56.682Z,12.37
2022-12-11T01:38:24.091Z,11.67
2022-12-11T01:40:52.349Z,17.27
2022-12-11T01:43:20.208Z,10.53
2022-12-11T01:45:49.709Z,13.47
2022-12-11T01:48:19.545Z,15.67
2022-12-11T01:50:50.936Z,13.67
2022-12-11T01:53:20.730Z,12.83
2022-12-11T01:55:49.548Z,11.93
2022-12-11T01:58:17.557Z,16.03
2022-12-11T02:00:44.978Z,13.90
2022-12-11T02:03:12.428Z,17.17
2022-12-11T02:05:40.037Z,23.00
2022-12-11T02:08:09.377Z,23.67
2022-12-11T02:10:41.748Z,20.43
2022-12-11T02:13:12.967Z,21.53
2022-12-11T02:15:43.653Z,19.67
2022-12-11T02:18:16.978Z,17.47
2022-12-11T02:20:46.745Z,20.87
2022-12-11T02:23:21.572Z,19.60
2022-12-11T02:25:52.547Z,17.77
2022-12-11T02:28:23.585Z,20.23
2022-12-11T02:30:52.284Z,18.60
2022-12-11T02:33:22.618Z,22.60
2022-12-11T02:35:50.745Z,20.53
2022-12-11T02:38:20.499Z,20.53
2022-12-11T02:40:49.827Z,20.60
2022-12-11T02:43:18.183Z,20.43
2022-12-11T02:45:47.714Z,20.57
2022-12-11T02:48:16.158Z,23.70
2022-12-11T02:50:45.029Z,21.37
2022-12-11T02:53:13.415Z,20.40
2022-12-11T02:55:42.222Z,19.30
2022-12-11T02:58:13.933Z,16.30
2022-12-11T03:00:41.520Z,19.13
2022-12-11T03:03:10.400Z,18.57
2022-12-11T03:05:37.848Z,19.30
2022-12-11T03:08:05.595Z,18.80
2022-12-11T03:10:33.286Z,19.63
2022-12-11T03:13:01.335Z,17.83
2022-12-11T03:15:31.955Z,16.27
2022-12-11T03:18:02.384Z,20.40
2022-12-11T03:20:35.877Z,19.80
2022-12-11T03:23:09.736Z,20.40
2022-12-11T03:25:40.908Z,20.20
2022-12-11T03:28:11.828Z,20.57
2022-12-11T03:30:40.134Z,19.17
2022-12-11T03:33:09.409Z,18.43
2022-12-11T03:35:39.716Z,21.30
2022-12-11T03:38:09.341Z,17.47
2022-12-11T03:40:37.457Z,17.97
2022-12-11T03:43:06.186Z,20.90
2022-12-11T03:45:34.452Z,19.93
2022-12-11T03:48:03.499Z,19.40
2022-12-11T03:50:32.806Z,17.60
2022-12-11T03:53:02.539Z,19.17
2022-12-11T03:55:31.309Z,21.13
2022-12-11T03:57:58.759Z,21.67
2022-12-11T04:00:26.171Z,18.43
2022-12-11T04:03:12.898Z,21.87
2022-12-11T04:05:41.222Z,20.50
2022-12-11T04:08:10.102Z,20.43
2022-12-11T04:10:37.790Z,24.00
2022-12-11T04:13:05.272Z,20.30
2022-12-11T04:15:31.851Z,19.90
2022-12-11T04:18:16.707Z,18.90
2022-12-11T04:21:01.593Z,20.90
2022-12-11T04:23:46.833Z,23.77
2022-12-11T04:26:15.729Z,22.87
2022-12-11T04:28:43.880Z,19.37
2022-12-11T04:31:12.476Z,19.20
2022-12-11T04:33:39.962Z,21.10
2022-12-11T04:36:07.995Z,20.93
2022-12-11T04:38:36.911Z,22.67
2022-12-11T04:41:05.427Z,20.87
2022-12-11T04:43:32.879Z,17.40
2022-12-11T04:46:03.587Z,21.47
2022-12-11T04:48:31.034Z,19.97
2022-12-11T04:50:58.609Z,23.07
2022-12-11T04:53:26.207Z,21.30
2022-12-11T04:55:55.719Z,20.27
2022-12-11T04:58:23.119Z,24.67
2022-12-11T05:00:50.746Z,23.33
2022-12-11T05:03:18.462Z,22.47
2022-12-11T05:05:48.855Z,19.03
2022-12-11T05:08:16.432Z,21.47
2022-12-11T05:10:49.828Z,20.73
2022-12-11T05:13:18.838Z,24.90
2022-12-11T05:15:46.274Z,18.27
2022-12-11T05:18:13.761Z,22.03
2022-12-11T05:20:41.152Z,20.30
2022-12-11T05:23:08.542Z,20.03
2022-12-11T05:25:35.914Z,20.33
2022-12-11T05:28:03.513Z,21.13
2022-12-11T05:30:33.497Z,22.57
2022-12-11T05:33:00.951Z,22.87
2022-12-11T05:35:28.356Z,21.97
2022-12-11T05:37:55.788Z,21.63
2022-12-11T05:40:23.234Z,23.67
2022-12-11T05:42:51.743Z,22.80
2022-12-11T05:45:19.771Z,19.20
2022-12-11T05:47:48.518Z,21.43
2022-12-11T05:50:15.903Z,21.70
2022-12-11T05:52:43.311Z,20.90
2022-12-11T05:55:11.288Z,22.20
2022-12-11T05:57:40.009Z,20.30
2022-12-11T06:00:08.294Z,23.73
2022-12-11T06:02:36.115Z,23.37
2022-12-11T06:05:05.180Z,22.47
2022-12-11T06:07:32.582Z,22.00
2022-12-11T06:09:59.964Z,22.63
2022-12-11T06:12:28.354Z,27.17
2022-12-11T06:14:55.976Z,21.80
2022-12-11T06:17:23.391Z,23.53
2022-12-11T06:19:50.777Z,23.30
2022-12-11T06:22:19.553Z,23.53
2022-12-11T06:24:48.002Z,25.23
2022-12-11T06:27:15.390Z,27.70
2022-12-11T06:29:42.781Z,21.80
2022-12-11T06:32:10.397Z,23.90
2022-12-11T06:34:37.780Z,23.80
2022-12-11T06:37:05.302Z,23.87
2022-12-11T06:39:34.333Z,25.10
2022-12-11T06:42:01.740Z,21.03
2022-12-11T06:44:29.270Z,21.30
2022-12-11T06:46:56.643Z,22.20
2022-12-11T06:49:24.179Z,21.83
2022-12-11T06:51:51.611Z,25.17
2022-12-11T06:54:19.015Z,23.53
2022-12-11T06:56:47.738Z,24.47
2022-12-11T06:59:15.109Z,26.33
2022-12-11T07:01:42.502Z,26.87
2022-12-11T07:04:10.305Z,23.43
2022-12-11T07:06:37.690Z,23.80
2022-12-11T07:09:05.796Z,25.20
2022-12-11T07:11:33.413Z,24.73
2022-12-11T07:14:02.250Z,25.17
2022-12-11T07:16:29.799Z,27.17
2022-12-11T07:18:57.433Z,24.17
2022-12-11T07:21:24.838Z,22.33
2022-12-11T07:23:52.278Z,26.17
2022-12-11T07:26:21.026Z,26.63
2022-12-11T07:28:48.863Z,23.40
2022-12-11T07:31:19.349Z,27.27
2022-12-11T07:33:47.065Z,22.83
2022-12-11T07:36:15.248Z,25.87
2022-12-11T07:38:42.634Z,28.30
2022-12-11T07:41:11.947Z,24.73
2022-12-11T07:43:39.609Z,27.03
2022-12-11T07:46:08.214Z,26.23
2022-12-11T07:48:37.329Z,24.13
2022-12-11T07:51:11.576Z,26.33
2022-12-11T07:53:39.667Z,23.93
2022-12-11T07:56:07.455Z,26.60
2022-12-11T07:58:34.948Z,24.43
2022-12-11T08:01:02.619Z,24.13
2022-12-11T08:03:30.195Z,21.87
2022-12-11T08:05:58.974Z,21.23
2022-12-11T08:08:26.481Z,26.40
2022-12-11T08:10:53.923Z,27.73
2022-12-11T08:13:21.314Z,25.80
2022-12-11T08:15:48.921Z,26.30
2022-12-11T08:18:16.320Z,25.83
2022-12-11T08:20:43.691Z,27.40
2022-12-11T08:23:12.521Z,29.03
2022-12-11T08:25:39.938Z,23.20
2022-12-11T08:28:07.373Z,25.87
2022-12-11T08:30:34.921Z,31.10
2022-12-11T08:33:02.373Z,30.67
2022-12-11T08:35:29.806Z,25.50
2022-12-11T08:37:57.217Z,26.77
2022-12-11T08:40:25.967Z,27.00
2022-12-11T08:42:53.382Z,27.53
2022-12-11T08:45:20.778Z,29.67
2022-12-11T08:47:48.195Z,31.33
2022-12-11T08:50:15.585Z,27.83
2022-12-11T08:52:43.022Z,28.93
2022-12-11T08:55:10.830Z,31.23
2022-12-11T08:57:40.048Z,29.23
2022-12-11T09:00:09.184Z,31.37
2022-12-11T09:02:36.649Z,32.63
2022-12-11T09:05:07.652Z,26.60
2022-12-11T09:07:35.123Z,29.63
2022-12-11T09:10:02.602Z,25.03
2022-12-11T09:12:30.010Z,30.30
2022-12-11T09:14:58.853Z,30.90
2022-12-11T09:17:26.267Z,25.83
2022-12-11T09:19:53.682Z,25.63
2022-12-11T09:22:21.084Z,28.13
2022-12-11T09:24:48.550Z,30.03
2022-12-11T09:27:16.273Z,33.40
2022-12-11T09:29:43.793Z,32.23
2022-12-11T09:32:12.545Z,34.60
2022-12-11T09:34:39.917Z,38.63
2022-12-11T09:37:07.347Z,33.43
2022-12-11T09:39:34.784Z,32.33
2022-12-11T09:42:05.323Z,34.83
2022-12-11T09:44:34.974Z,29.07
2022-12-11T09:47:02.466Z,32.03
2022-12-11T09:49:35.146Z,35.23
2022-12-11T09:52:08.338Z,27.60
2022-12-11T09:54:35.783Z,34.73
2022-12-11T09:57:07.662Z,27.93
2022-12-11T09:59:37.926Z,33.43
2022-12-11T10:02:15.965Z,32.60
2022-12-11T10:04:48.442Z,30.63
2022-12-11T10:07:17.512Z,33.60
2022-12-11T10:09:50.371Z,32.13
2022-12-11T10:12:24.017Z,36.43
2022-12-11T10:14:56.573Z,32.23
2022-12-11T10:17:26.374Z,34.20
2022-12-11T10:19:56.407Z,34.10
2022-12-11T10:22:25.511Z,36.27
2022-12-11T10:25:12.718Z,30.30
2022-12-11T10:27:40.811Z,66.03
2022-12-11T10:30:14.809Z,180.57
2022-12-11T10:32:48.173Z,161.57
2022-12-11T10:35:20.843Z,195.47
2022-12-11T10:37:48.290Z,321.20
2022-12-11T10:40:15.802Z,410.10
2022-12-11T10:42:52.241Z,376.37
2022-12-11T10:45:19.755Z,422.70
2022-12-11T10:47:47.176Z,609.70
2022-12-11T10:50:25.085Z,234.83
2022-12-11T10:52:53.313Z,570.83
2022-12-11T10:55:22.216Z,585.20
2022-12-11T10:57:55.680Z,35.20
2022-12-11T11:00:29.890Z,70.20
2022-12-11T11:02:57.358Z,522.87
2022-12-11T11:05:31.868Z,561.10
2022-12-11T11:08:11.955Z,623.23
2022-12-11T11:10:39.448Z,618.77
2022-12-11T11:13:06.950Z,617.73
2022-12-11T11:15:34.357Z,612.47
2022-12-11T11:18:10.554Z,461.53
2022-12-11T11:20:44.827Z,398.60
2022-12-11T11:23:13.369Z,165.93
2022-12-11T11:25:40.808Z,34.17
2022-12-11T11:28:09.346Z,103.07
2022-12-11T11:30:37.774Z,90.70
2022-12-11T11:33:06.635Z,58.83
2022-12-11T11:35:34.056Z,34.13
2022-12-11T11:38:05.014Z,34.73
2022-12-11T11:40:34.351Z,33.37
2022-12-11T11:43:12.229Z,35.33
2022-12-11T11:45:42.309Z,36.10
2022-12-11T11:48:14.596Z,36.07
2022-12-11T11:50:45.515Z,33.43
2022-12-11T11:53:16.991Z,32.77
2022-12-11T11:55:50.077Z,38.63
2022-12-11T11:58:19.465Z,35.77
2022-12-11T12:00:46.910Z,39.73
2022-12-11T12:03:16.086Z,42.30
2022-12-11T12:05:46.682Z,38.40
2022-12-11T12:08:18.303Z,37.87
2022-12-11T12:10:48.777Z,34.00
2022-12-11T12:13:48.034Z,36.80
2022-12-11T12:16:36.299Z,32.33
2022-12-11T12:19:02.749Z,32.53
2022-12-11T12:21:35.234Z,31.53
2022-12-11T12:24:16.080Z,33.63
2022-12-11T12:26:46.928Z,34.03
2022-12-11T12:29:27.823Z,33.90
2022-12-11T12:31:59.871Z,34.13
2022-12-11T12:34:34.911Z,37.87
2022-12-11T12:37:08.182Z,38.80
2022-12-11T12:39:43.731Z,41.67
2022-12-11T12:42:14.669Z,43.53
2022-12-11T12:44:47.139Z,38.77
2022-12-11T12:47:16.272Z,37.17
2022-12-11T12:49:44.455Z,36.60
2022-12-11T12:52:15.021Z,41.37
2022-12-11T12:55:05.112Z,35.67
2022-12-11T12:57:33.026Z,43.13
2022-12-11T13:00:00.574Z,42.47
2022-12-11T13:02:28.279Z,44.73
2022-12-11T13:04:59.781Z,36.33
2022-12-11T13:07:29.851Z,32.03
2022-12-11T13:10:00.786Z,29.17
2022-12-11T13:12:40.588Z,26.03
2022-12-11T13:15:24.046Z,21.90
2022-12-11T13:17:52.074Z,25.20
2022-12-11T13:20:20.873Z,23.17
2022-12-11T13:22:49.799Z,22.47
2022-12-11T13:25:26.439Z,21.87
2022-12-11T13:27:53.976Z,24.37
2022-12-11T13:30:23.285Z,21.93
2022-12-11T13:32:54.475Z,25.40
2022-12-11T13:35:21.950Z,22.10
2022-12-11T13:37:51.179Z,23.20
2022-12-11T13:40:20.765Z,22.07
2022-12-11T13:42:51.270Z,20.87
2022-12-11T13:45:20.062Z,21.83
2022-12-11T13:47:47.969Z,20.37
2022-12-11T13:50:17.027Z,20.87
2022-12-11T13:52:53.525Z,21.50
2022-12-11T13:55:23.871Z,21.53
2022-12-11T13:57:52.624Z,21.33
2022-12-11T14:00:21.559Z,18.83
2022-12-11T14:02:49.056Z,20.50
2022-12-11T14:05:16.481Z,19.93
2022-12-11T14:07:47.429Z,21.03
2022-12-11T14:10:17.052Z,18.37
2022-12-11T14:12:46.366Z,16.40
2022-12-11T14:15:15.842Z,17.27
2022-12-11T14:17:50.052Z,21.17
2022-12-11T14:20:20.477Z,17.17
2022-12-11T14:22:48.160Z,17.67
2022-12-11T14:25:21.714Z,16.67
2022-12-11T14:27:49.734Z,20.10
2022-12-11T14:30:24.339Z,18.17
2022-12-11T14:32:52.333Z,20.70
2022-12-11T14:35:23.948Z,19.10
2022-12-11T14:37:51.779Z,904.70
2022-12-11T14:40:20.825Z,16.40
2022-12-11T14:42:50.137Z,23.30
2022-12-11T14:45:21.370Z,17.70
2022-12-11T14:47:50.593Z,18.80
2022-12-11T14:50:20.383Z,18.93
2022-12-11T14:52:49.866Z,19.53
2022-12-11T14:55:19.139Z,19.27
2022-12-11T14:57:48.690Z,17.10
2022-12-11T15:00:23.088Z,22.20
2022-12-11T15:02:59.765Z,20.90
2022-12-11T15:05:27.579Z,20.90
2022-12-11T15:07:56.401Z,16.57
2022-12-11T15:10:24.701Z,15.23
2022-12-11T15:12:52.344Z,19.00
2022-12-11T15:15:19.796Z,14.43
2022-12-11T15:17:52.674Z,17.57
2022-12-11T15:20:29.330Z,15.40
2022-12-11T15:22:59.394Z,13.43
2022-12-11T15:25:27.878Z,13.20
2022-12-11T15:27:55.742Z,14.50
2022-12-11T15:30:30.545Z,15.47
2022-12-11T15:33:18.958Z,14.87
2022-12-11T15:35:55.371Z,17.10
2022-12-11T15:38:30.146Z,16.43
2022-12-11T15:40:58.193Z,16.17
2022-12-11T15:43:25.591Z,21.40
2022-12-11T15:45:53.064Z,32.77
2022-12-11T15:48:20.551Z,19.00
2022-12-11T15:50:48.069Z,18.20
2022-12-11T15:53:16.794Z,18.23
2022-12-11T15:55:44.285Z,20.77
2022-12-11T15:58:15.011Z,19.57
2022-12-11T16:00:42.467Z,22.27
2022-12-11T16:03:11.739Z,27.90
2022-12-11T16:05:39.215Z,28.67
2022-12-11T16:08:06.686Z,27.30
2022-12-11T16:10:35.509Z,37.47
2022-12-11T16:13:02.973Z,18.20
2022-12-11T16:15:30.796Z,16.67
2022-12-11T16:18:01.984Z,18.67
2022-12-11T16:20:30.026Z,18.97
2022-12-11T16:22:57.616Z,26.40
2022-12-11T16:25:25.056Z,22.27
2022-12-11T16:27:55.915Z,21.70
2022-12-11T16:30:23.657Z,24.70
2022-12-11T16:32:51.227Z,25.00
2022-12-11T16:35:19.553Z,31.97
2022-12-11T16:37:49.267Z,22.47
2022-12-11T16:40:16.850Z,22.07
2022-12-11T16:42:44.373Z,19.43
2022-12-11T16:45:14.589Z,32.13
2022-12-11T16:47:42.148Z,22.33
2022-12-11T16:50:09.927Z,23.83
2022-12-11T16:52:37.373Z,23.13
2022-12-11T16:55:05.459Z,23.57
2022-12-11T16:57:32.935Z,22.90
2022-12-11T17:00:00.470Z,20.87
2022-12-11T17:02:29.338Z,18.57
2022-12-11T17:04:56.793Z,20.27
2022-12-11T17:07:24.216Z,19.30
2022-12-11T17:09:51.584Z,18.03
2022-12-11T17:12:19.088Z,15.80
2022-12-11T17:14:46.510Z,18.53
2022-12-11T17:17:13.976Z,16.43
2022-12-11T17:19:42.764Z,19.53
2022-12-11T17:22:10.189Z,17.97
2022-12-11T17:24:37.895Z,20.70
2022-12-11T17:27:05.342Z,18.80
2022-12-11T17:29:39.377Z,21.47
2022-12-11T17:32:07.405Z,18.33
2022-12-11T17:34:38.432Z,23.53
2022-12-11T17:37:07.810Z,23.43
2022-12-11T17:39:35.296Z,19.43
2022-12-11T17:42:02.680Z,20.23
2022-12-11T17:44:31.125Z,23.23
2022-12-11T17:46:58.748Z,18.40
2022-12-11T17:49:26.165Z,19.13
2022-12-11T17:51:55.305Z,20.67
2022-12-11T17:54:24.602Z,20.47
2022-12-11T17:56:52.199Z,15.43
2022-12-11T17:59:19.622Z,23.03
2022-12-11T18:01:47.090Z,23.90
2022-12-11T18:04:14.562Z,27.30
2022-12-11T18:06:42.081Z,26.50
2022-12-11T18:09:10.250Z,29.63
2022-12-11T18:11:39.097Z,40.87
2022-12-11T18:14:06.547Z,28.80
2022-12-11T18:16:34.978Z,26.07
2022-12-11T18:19:02.693Z,26.17
2022-12-11T18:21:31.666Z,33.33
2022-12-11T18:23:59.436Z,26.47
2022-12-11T18:26:26.908Z,23.37
2022-12-11T18:28:55.702Z,25.50
2022-12-11T18:31:23.525Z,27.47
2022-12-11T18:33:51.643Z,25.97
2022-12-11T18:36:19.582Z,21.27
2022-12-11T18:38:47.924Z,25.10
2022-12-11T18:41:15.983Z,21.47
2022-12-11T18:43:43.580Z,24.00
2022-12-11T18:46:14.123Z,22.37
2022-12-11T18:48:42.106Z,22.60
2022-12-11T18:51:11.375Z,17.40
2022-12-11T18:53:40.201Z,23.63
2022-12-11T18:56:09.714Z,19.00
2022-12-11T18:58:37.397Z,23.80
2022-12-11T19:01:08.531Z,23.30
2022-12-11T19:03:37.398Z,23.17
2022-12-11T19:06:09.527Z,23.93
2022-12-11T19:08:36.958Z,24.00
2022-12-11T19:11:04.462Z,29.27
2022-12-11T19:13:32.224Z,23.87
2022-12-11T19:15:59.958Z,26.83
2022-12-11T19:18:28.317Z,21.23
2022-12-11T19:21:06.745Z,22.67
2022-12-11T19:23:36.138Z,22.17
2022-12-11T19:26:04.135Z,24.23
2022-12-11T19:28:34.123Z,27.00
2022-12-11T19:31:01.619Z,23.20
2022-12-11T19:33:29.119Z,22.00
2022-12-11T19:36:02.814Z,23.50
2022-12-11T19:38:30.233Z,21.50
2022-12-11T19:40:57.647Z,25.37
2022-12-11T19:43:25.146Z,26.30
2022-12-11T19:45:52.559Z,21.07
2022-12-11T19:48:20.052Z,25.30
2022-12-11T19:50:47.477Z,23.67
2022-12-11T19:53:16.281Z,21.97
2022-12-11T19:55:49.623Z,25.17
2022-12-11T19:58:17.115Z,19.73
2022-12-11T20:00:44.562Z,22.60
2022-12-11T20:03:11.970Z,23.07
2022-12-11T20:05:39.401Z,20.53
2022-12-11T20:08:35.686Z,19.97
2022-12-11T20:10:55.587Z,20.00
2022-12-11T20:13:23.260Z,19.50
2022-12-11T20:15:51.541Z,16.47
2022-12-11T20:18:19.134Z,17.80
2022-12-11T20:20:46.633Z,17.10
2022-12-11T20:23:14.038Z,19.50
2022-12-11T20:25:41.531Z,15.30
2022-12-11T20:28:10.374Z,19.80
2022-12-11T20:30:37.829Z,16.80
2022-12-11T20:33:05.418Z,18.03
2022-12-11T20:35:32.863Z,15.37
2022-12-11T20:38:00.249Z,16.47
2022-12-11T20:40:27.710Z,13.03
2022-12-11T20:42:55.080Z,15.00
2022-12-11T20:45:24.071Z,14.13
2022-12-11T20:47:51.642Z,13.13
2022-12-11T20:50:19.228Z,14.10
2022-12-11T20:52:46.594Z,13.43
2022-12-11T20:55:14.640Z,14.70
2022-12-11T20:57:45.186Z,14.80
2022-12-11T21:00:13.448Z,15.07
2022-12-11T21:02:42.222Z,16.30
2022-12-11T21:05:10.221Z,17.33
2022-12-11T21:07:37.859Z,16.73
2022-12-11T21:10:05.515Z,18.73
2022-12-11T21:12:32.907Z,15.70
2022-12-11T21:15:00.303Z,19.70
2022-12-11T21:17:27.742Z,21.20
2022-12-11T21:19:56.496Z,19.20
2022-12-11T21:22:23.905Z,19.53
2022-12-11T21:24:51.344Z,19.33
2022-12-11T21:27:18.763Z,18.73
2022-12-11T21:29:46.197Z,20.13
2022-12-11T21:32:13.738Z,18.17
2022-12-11T21:34:41.503Z,19.23
2022-12-11T21:37:10.306Z,17.50
2022-12-11T21:39:39.537Z,17.93
2022-12-11T21:42:07.149Z,16.87
2022-12-11T21:47:22.046Z,21.43
2022-12-11T21:49:49.521Z,18.87
2022-12-11T21:52:18.309Z,17.10
2022-12-11T21:54:45.730Z,20.27
2022-12-11T21:57:13.134Z,20.40
2022-12-11T21:59:40.577Z,19.60
2022-12-11T22:02:08.579Z,18.63
2022-12-11T22:04:37.020Z,17.33
2022-12-11T22:07:05.574Z,20.33
2022-12-11T22:09:34.365Z,18.00
2022-12-11T22:12:01.830Z,17.97
2022-12-11T22:14:31.198Z,19.83
2022-12-11T22:16:58.644Z,17.07
2022-12-11T22:19:32.169Z,18.37
2022-12-11T22:22:00.051Z,18.20
2022-12-11T22:24:27.535Z,18.13
2022-12-11T22:26:56.295Z,13.77
2022-12-11T22:29:23.723Z,15.67
2022-12-11T22:31:51.179Z,16.10
2022-12-11T22:34:18.608Z,18.57
2022-12-11T22:36:46.000Z,24.43
2022-12-11T22:39:16.210Z,19.47
2022-12-11T22:41:43.689Z,19.03
2022-12-11T22:44:15.402Z,20.57
2022-12-11T22:46:49.463Z,23.67
2022-12-11T22:49:17.527Z,17.23
2022-12-11T22:51:45.375Z,23.60
2022-12-11T22:54:12.810Z,22.60
2022-12-11T22:56:40.199Z,23.67
2022-12-11T22:59:07.932Z,24.57
2022-12-11T23:01:36.703Z,22.33
2022-12-11T23:04:04.186Z,21.93
2022-12-11T23:06:31.661Z,21.73
2022-12-11T23:08:59.729Z,21.67
2022-12-11T23:11:28.249Z,17.83
2022-12-11T23:13:56.023Z,20.53
2022-12-11T23:16:23.503Z,21.03
2022-12-11T23:18:52.307Z,20.50
2022-12-11T23:21:20.047Z,20.47
2022-12-11T23:23:47.481Z,16.67
2022-12-11T23:26:15.626Z,20.13
2022-12-11T23:28:43.079Z,20.50
2022-12-11T23:31:10.619Z,19.23
2022-12-11T23:33:38.109Z,19.73
2022-12-11T23:36:07.425Z,22.03
2022-12-11T23:38:34.886Z,21.90
2022-12-11T23:41:02.936Z,21.20
2022-12-11T23:43:30.455Z,18.93
2022-12-11T23:45:58.572Z,19.17
2022-12-11T23:48:26.036Z,18.10
2022-12-11T23:50:53.517Z,21.10
2022-12-11T23:53:22.246Z,18.47
2022-12-11T23:55:49.712Z,19.33
2022-12-11T23:58:17.312Z,19.17
